createdAt,value
2019-01-14T00:01:04.943Z,71.58
2019-01-14T00:03:34.823Z,71.91
2019-01-14T00:06:10.320Z,72.13
2019-01-14T00:08:58.348Z,71.28
2019-01-14T00:11:27.882Z,71.51
2019-01-14T00:13:57.541Z,71.14
2019-01-14T00:16:27.570Z,70.93
2019-01-14T00:19:16.240Z,70.89
2019-01-14T00:21:46.190Z,70.76
2019-01-14T00:24:15.637Z,71.14
2019-01-14T00:26:45.210Z,70.37
2019-01-14T00:29:34.047Z,70.26
2019-01-14T00:32:03.557Z,70.61
2019-01-14T00:34:47.375Z,70.74
2019-01-14T00:37:11.061Z,70.94
2019-01-14T00:39:52.574Z,70.82
2019-01-14T00:42:41.145Z,70.88
2019-01-14T00:45:10.831Z,71.26
2019-01-14T00:47:40.441Z,71.12
2019-01-14T00:50:14.430Z,71.34
2019-01-14T00:52:44.586Z,71.44
2019-01-14T00:58:04.300Z,71.15
2019-01-14T01:00:54.250Z,71.32
2019-01-14T01:03:27.013Z,71.28
2019-01-14T01:06:01.227Z,70.91
2019-01-14T01:11:06.278Z,70.99
2019-01-14T01:16:13.864Z,71.00
2019-01-14T01:18:54.684Z,71.03
2019-01-14T01:24:13.767Z,71.48
2019-01-14T01:27:01.122Z,71.48
2019-01-14T01:29:58.110Z,70.89
2019-01-14T01:35:31.834Z,71.30
2019-01-14T01:38:21.156Z,71.21
2019-01-14T01:41:12.145Z,70.97
2019-01-14T01:43:41.606Z,71.15
2019-01-14T01:46:13.612Z,70.97
2019-01-14T01:49:09.983Z,70.56
2019-01-14T01:57:17.936Z,70.53
2019-01-14T02:02:40.226Z,70.66
2019-01-14T02:05:49.739Z,70.54
2019-01-14T02:08:30.694Z,70.50
2019-01-14T02:13:54.216Z,71.02
2019-01-14T02:19:26.420Z,71.17
2019-01-14T02:21:55.993Z,71.03
2019-01-14T02:24:25.492Z,71.27
2019-01-14T02:32:08.051Z,71.06
2019-01-14T02:35:15.778Z,71.35
2019-01-14T02:37:45.250Z,71.21
2019-01-14T02:40:54.178Z,71.12
2019-01-14T02:43:47.219Z,70.93
2019-01-14T02:46:21.663Z,70.73
2019-01-14T02:48:55.478Z,70.50
2019-01-14T02:51:29.345Z,70.16
2019-01-14T02:57:05.150Z,69.75
2019-01-14T03:03:03.273Z,69.00
2019-01-14T03:05:40.714Z,68.33
2019-01-14T03:08:21.762Z,68.03
2019-01-14T03:11:10.583Z,67.91
2019-01-14T03:13:41.013Z,67.90
2019-01-14T03:16:33.273Z,67.32
2019-01-14T03:19:14.257Z,67.14
2019-01-14T03:21:44.587Z,66.84
2019-01-14T03:24:34.784Z,66.34
2019-01-14T03:27:04.338Z,66.45
2019-01-14T03:29:37.210Z,65.64
2019-01-14T03:32:31.553Z,65.54
2019-01-14T03:35:01.708Z,65.79
2019-01-14T03:37:31.465Z,64.37
2019-01-14T03:40:00.895Z,65.07
2019-01-14T03:42:31.142Z,64.06
2019-01-14T03:45:00.568Z,63.92
2019-01-14T03:47:35.235Z,64.27
2019-01-14T03:53:30.835Z,63.25
2019-01-14T03:56:20.907Z,62.61
2019-01-14T03:59:09.509Z,63.34
2019-01-14T04:01:58.166Z,62.87
2019-01-14T04:07:42.508Z,62.29
2019-01-14T04:10:31.041Z,62.58
2019-01-14T04:13:38.853Z,63.06
2019-01-14T04:16:20.127Z,63.55
2019-01-14T04:18:50.447Z,62.71
2019-01-14T04:21:20.824Z,62.82
2019-01-14T04:23:50.669Z,62.96
2019-01-14T04:26:39.220Z,62.50
2019-01-14T04:32:14.502Z,62.54
2019-01-14T04:37:49.618Z,62.10
2019-01-14T04:40:19.444Z,62.38
2019-01-14T04:48:23.123Z,62.37
2019-01-14T04:50:53.343Z,62.18
2019-01-14T04:53:43.155Z,62.58
2019-01-14T04:56:24.714Z,62.28
2019-01-14T05:01:54.316Z,62.46
2019-01-14T05:04:24.128Z,62.63
2019-01-14T05:07:14.808Z,63.21
2019-01-14T05:10:11.144Z,62.78
2019-01-14T05:15:17.202Z,62.91
2019-01-14T05:17:47.082Z,62.38
2019-01-14T05:23:22.664Z,62.30
2019-01-14T05:25:52.364Z,62.56
2019-01-14T05:28:49.975Z,62.36
2019-01-14T05:31:19.699Z,62.66
2019-01-14T05:33:49.482Z,62.62
2019-01-14T05:36:50.048Z,62.49
2019-01-14T05:39:44.607Z,62.45
2019-01-14T05:42:33.218Z,61.82
2019-01-14T05:45:25.361Z,62.42
2019-01-14T05:47:55.143Z,61.97
2019-01-14T05:50:24.650Z,62.40
2019-01-14T05:52:54.422Z,62.54
2019-01-14T05:55:44.700Z,62.42
2019-01-14T06:01:29.049Z,62.07
2019-01-14T06:03:58.664Z,61.91
2019-01-14T06:06:47.246Z,62.40
2019-01-14T06:09:16.762Z,62.24
2019-01-14T06:11:49.504Z,62.25
2019-01-14T06:14:39.629Z,62.77
2019-01-14T06:22:39.387Z,62.35
2019-01-14T06:25:20.736Z,62.76
2019-01-14T06:27:51.183Z,62.44
2019-01-14T06:30:23.013Z,62.20
2019-01-14T06:32:52.657Z,62.64
2019-01-14T06:35:41.194Z,61.91
2019-01-14T06:38:29.703Z,62.02
2019-01-14T06:40:59.279Z,62.55
2019-01-14T06:43:29.050Z,62.23
2019-01-14T06:49:06.640Z,62.42
2019-01-14T06:51:36.187Z,62.33
2019-01-14T06:54:05.876Z,61.97
2019-01-14T06:56:35.629Z,61.90
2019-01-14T06:59:05.218Z,61.85
2019-01-14T07:01:34.781Z,62.41
2019-01-14T07:04:23.257Z,62.21
2019-01-14T07:06:53.216Z,62.30
2019-01-14T07:09:42.301Z,62.14
2019-01-14T07:12:51.112Z,61.78
2019-01-14T07:15:20.686Z,61.79
2019-01-14T07:18:16.548Z,61.79
2019-01-14T07:20:47.151Z,62.04
2019-01-14T07:23:36.738Z,61.88
2019-01-14T07:26:28.786Z,62.01
2019-01-14T07:28:58.415Z,62.02
2019-01-14T07:31:28.018Z,62.21
2019-01-14T07:33:57.727Z,62.36
2019-01-14T07:36:46.351Z,62.71
2019-01-14T07:39:15.895Z,62.76
2019-01-14T07:41:45.427Z,63.02
2019-01-14T07:44:14.953Z,63.28
2019-01-14T07:46:44.587Z,63.52
2019-01-14T07:49:28.447Z,63.48
2019-01-14T07:51:58.110Z,63.26
2019-01-14T07:57:36.824Z,63.25
2019-01-14T08:00:17.645Z,63.19
2019-01-14T08:02:48.284Z,63.30
2019-01-14T08:05:36.968Z,63.13
2019-01-14T08:08:18.494Z,63.29
2019-01-14T08:10:48.231Z,63.15
2019-01-14T08:13:17.734Z,63.15
2019-01-14T08:15:47.644Z,63.22
2019-01-14T08:18:17.339Z,63.46
2019-01-14T08:20:46.818Z,62.96
2019-01-14T08:23:16.386Z,62.91
2019-01-14T08:25:45.830Z,62.42
2019-01-14T08:28:15.321Z,62.48
2019-01-14T08:30:44.800Z,62.15
2019-01-14T08:33:33.160Z,62.04
2019-01-14T08:36:14.103Z,61.92
2019-01-14T08:39:25.458Z,61.64
2019-01-14T08:47:36.681Z,61.37
2019-01-14T08:50:08.295Z,60.97
2019-01-14T08:52:39.265Z,60.77
2019-01-14T08:55:08.906Z,60.67
2019-01-14T08:57:40.903Z,60.68
2019-01-14T09:00:29.779Z,60.47
2019-01-14T09:05:53.310Z,60.12
2019-01-14T09:08:28.655Z,59.60
2019-01-14T09:11:06.058Z,59.77
2019-01-14T09:13:35.824Z,59.42
2019-01-14T09:22:14.570Z,58.31
2019-01-14T09:24:44.549Z,58.36
2019-01-14T09:30:02.095Z,58.53
2019-01-14T09:32:40.086Z,58.15
2019-01-14T09:35:09.757Z,57.95
2019-01-14T09:37:39.467Z,58.08
2019-01-14T09:40:30.190Z,58.15
2019-01-14T09:46:13.210Z,58.41
2019-01-14T09:48:42.771Z,58.86
2019-01-14T09:51:12.272Z,58.95
2019-01-14T09:53:41.763Z,59.07
2019-01-14T09:56:30.482Z,59.43
2019-01-14T09:59:14.622Z,59.43
2019-01-14T10:01:32.394Z,59.72
2019-01-14T10:04:12.950Z,60.16
2019-01-14T10:06:42.803Z,60.16
2019-01-14T10:09:15.592Z,59.95
2019-01-14T10:11:53.703Z,60.61
2019-01-14T10:14:26.076Z,60.72
2019-01-14T10:19:32.543Z,59.04
2019-01-14T10:22:02.009Z,58.56
2019-01-14T10:24:37.867Z,58.68
2019-01-14T10:27:47.974Z,58.15
2019-01-14T10:33:13.534Z,57.47
2019-01-14T10:35:42.976Z,56.99
2019-01-14T10:41:06.552Z,57.28
2019-01-14T10:46:29.688Z,56.16
2019-01-14T10:48:59.497Z,56.16
2019-01-14T10:51:28.986Z,55.99
2019-01-14T10:54:01.919Z,55.80
2019-01-14T10:56:31.454Z,55.64
2019-01-14T10:59:22.083Z,55.27
2019-01-14T11:01:51.744Z,55.24
2019-01-14T11:04:21.262Z,55.23
2019-01-14T11:07:02.105Z,55.09
2019-01-14T11:09:38.717Z,54.78
2019-01-14T11:12:08.486Z,54.50
2019-01-14T11:14:38.107Z,55.03
2019-01-14T11:17:07.751Z,54.88
2019-01-14T11:19:39.913Z,54.88
2019-01-14T11:22:29.783Z,54.61
2019-01-14T11:24:59.308Z,54.67
2019-01-14T11:27:49.087Z,55.09
2019-01-14T11:30:32.394Z,54.76
2019-01-14T11:33:01.861Z,55.00
2019-01-14T11:35:31.327Z,55.17
2019-01-14T11:38:00.956Z,55.46
2019-01-14T11:40:49.605Z,55.38
2019-01-14T11:46:27.324Z,55.38
2019-01-14T11:49:18.284Z,55.51
2019-01-14T11:51:47.864Z,55.47
2019-01-14T11:54:17.494Z,55.47
2019-01-14T11:56:47.056Z,55.83
2019-01-14T12:01:52.083Z,55.80
2019-01-14T12:04:21.897Z,56.39
2019-01-14T12:06:51.339Z,56.39
2019-01-14T12:09:21.408Z,56.09
2019-01-14T12:11:51.658Z,55.80
2019-01-14T12:14:41.728Z,55.80
2019-01-14T12:17:31.634Z,56.80
2019-01-14T12:23:12.239Z,56.73
2019-01-14T12:25:41.895Z,56.95
2019-01-14T12:28:30.378Z,57.69
2019-01-14T12:31:11.290Z,57.10
2019-01-14T12:33:41.082Z,57.10
2019-01-14T12:36:11.108Z,57.54
2019-01-14T12:38:40.572Z,57.79
2019-01-14T12:41:10.138Z,57.71
2019-01-14T12:43:41.751Z,58.47
2019-01-14T12:46:34.168Z,58.47
2019-01-14T12:49:04.280Z,58.38
2019-01-14T12:51:33.998Z,58.72
2019-01-14T12:54:22.476Z,58.86
2019-01-14T12:56:51.944Z,58.82
2019-01-14T12:59:21.448Z,59.07
2019-01-14T13:01:51.370Z,59.20
2019-01-14T13:04:42.642Z,59.27
2019-01-14T13:07:24.323Z,59.55
2019-01-14T13:10:05.222Z,59.67
2019-01-14T13:12:35.755Z,59.67
2019-01-14T13:15:25.671Z,59.71
2019-01-14T13:17:55.777Z,59.74
2019-01-14T13:20:30.664Z,59.95
2019-01-14T13:23:00.689Z,60.17
2019-01-14T13:25:30.708Z,60.17
2019-01-14T13:28:00.402Z,60.33
2019-01-14T13:30:31.448Z,60.25
2019-01-14T13:33:20.068Z,60.51
2019-01-14T13:36:00.777Z,60.69
2019-01-14T13:38:31.808Z,60.69
2019-01-14T13:43:55.242Z,60.55
2019-01-14T13:46:26.327Z,60.74
2019-01-14T13:49:14.948Z,60.87
2019-01-14T13:51:56.044Z,61.41
2019-01-14T13:54:29.732Z,61.61
2019-01-14T13:56:59.579Z,61.48
2019-01-14T13:59:32.246Z,62.17
2019-01-14T14:02:25.416Z,62.36
2019-01-14T14:05:14.334Z,62.25
2019-01-14T14:07:55.486Z,62.51
2019-01-14T14:10:28.575Z,62.51
2019-01-14T14:13:17.076Z,62.44
2019-01-14T14:16:05.687Z,62.44
2019-01-14T14:18:35.659Z,62.54
2019-01-14T14:21:06.958Z,62.72
2019-01-14T14:23:36.733Z,62.93
2019-01-14T14:26:51.535Z,62.58
2019-01-14T14:32:27.570Z,62.86
2019-01-14T14:35:07.609Z,62.86
2019-01-14T14:37:40.700Z,63.03
2019-01-14T14:40:12.880Z,62.76
2019-01-14T14:43:01.545Z,62.62
2019-01-14T14:45:31.389Z,62.62
2019-01-14T14:48:01.223Z,62.56
2019-01-14T14:50:43.040Z,62.56
2019-01-14T14:53:05.181Z,62.51
2019-01-14T14:58:38.822Z,61.81
2019-01-14T15:01:28.323Z,62.34
2019-01-14T15:04:09.273Z,62.34
2019-01-14T15:06:52.793Z,62.17
2019-01-14T15:09:31.711Z,62.47
2019-01-14T15:12:00.307Z,62.47
2019-01-14T15:14:30.692Z,61.93
2019-01-14T15:17:00.279Z,61.93
2019-01-14T15:19:31.773Z,62.36
2019-01-14T15:22:01.237Z,62.36
2019-01-14T15:24:34.022Z,62.50
2019-01-14T15:27:03.937Z,62.50
2019-01-14T15:29:52.455Z,61.51
2019-01-14T15:32:23.653Z,61.51
2019-01-14T15:34:53.147Z,60.90
2019-01-14T15:37:25.094Z,60.95
2019-01-14T15:39:54.828Z,60.80
2019-01-14T15:42:24.605Z,60.44
2019-01-14T15:45:14.055Z,60.63
2019-01-14T15:47:55.099Z,60.63
2019-01-14T15:50:25.292Z,61.64
2019-01-14T15:53:13.754Z,61.18
2019-01-14T15:55:43.317Z,61.18
2019-01-14T15:58:31.865Z,61.40
2019-01-14T16:01:20.213Z,61.40
2019-01-14T16:03:49.713Z,61.21
2019-01-14T16:06:38.457Z,61.56
2019-01-14T16:09:19.241Z,61.56
2019-01-14T16:11:49.515Z,61.12
2019-01-14T16:14:19.759Z,61.47
2019-01-14T16:17:13.670Z,61.88
2019-01-14T16:20:03.968Z,62.44
2019-01-14T16:22:46.130Z,62.67
2019-01-14T16:25:18.255Z,63.21
2019-01-14T16:27:47.676Z,63.21
2019-01-14T16:35:51.856Z,64.61
2019-01-14T16:38:21.426Z,64.61
2019-01-14T16:44:00.510Z,64.83
2019-01-14T16:46:32.530Z,65.09
2019-01-14T16:49:14.252Z,65.64
2019-01-14T16:51:47.231Z,65.82
2019-01-14T16:54:16.698Z,65.95
2019-01-14T16:59:55.614Z,66.40
2019-01-14T17:02:47.150Z,66.35
2019-01-14T17:05:40.222Z,66.35
2019-01-14T17:08:39.702Z,66.61
2019-01-14T17:11:13.404Z,66.86
2019-01-14T17:14:08.118Z,66.88
2019-01-14T17:16:53.039Z,66.88
2019-01-14T17:19:33.493Z,66.48
2019-01-14T17:22:03.121Z,66.56
2019-01-14T17:27:26.471Z,66.77
2019-01-14T17:29:58.501Z,66.77
2019-01-14T17:32:46.990Z,66.80
2019-01-14T17:35:18.602Z,66.95
2019-01-14T17:37:48.056Z,66.33
2019-01-14T17:40:19.030Z,66.33
2019-01-14T17:42:48.718Z,66.95
2019-01-14T17:45:18.837Z,67.11
2019-01-14T17:48:07.444Z,67.54
2019-01-14T17:50:48.773Z,67.48
2019-01-14T17:53:18.321Z,67.48
2019-01-14T17:56:06.955Z,67.71
2019-01-14T17:58:36.492Z,67.71
2019-01-14T18:01:06.293Z,67.67
2019-01-14T18:03:35.966Z,67.51
2019-01-14T18:06:05.602Z,67.22
2019-01-14T18:08:35.081Z,67.27
2019-01-14T18:11:04.893Z,67.09
2019-01-14T18:13:53.403Z,67.24
2019-01-14T18:16:23.009Z,67.24
2019-01-14T18:18:52.630Z,66.90
2019-01-14T18:21:33.275Z,66.78
2019-01-14T18:24:05.589Z,66.71
2019-01-14T18:26:35.407Z,66.48
2019-01-14T18:29:05.100Z,66.42
2019-01-14T18:31:49.300Z,66.40
2019-01-14T18:34:06.978Z,66.54
2019-01-14T18:36:55.567Z,66.74
2019-01-14T18:39:25.117Z,66.74
2019-01-14T18:42:13.610Z,66.59
2019-01-14T18:44:43.201Z,66.50
2019-01-14T18:47:12.717Z,66.29
2019-01-14T18:49:42.404Z,66.29
2019-01-14T18:55:08.155Z,66.27
2019-01-14T19:00:17.981Z,65.98
2019-01-14T19:02:59.142Z,65.92
2019-01-14T19:05:41.097Z,65.84
2019-01-14T19:08:21.889Z,65.84
2019-01-14T19:11:03.224Z,65.62
2019-01-14T19:13:50.251Z,65.46
2019-01-14T19:16:31.910Z,64.95
2019-01-14T19:19:05.928Z,64.95
2019-01-14T19:21:39.425Z,65.08
2019-01-14T19:24:29.385Z,65.03
2019-01-14T19:26:59.338Z,64.96
2019-01-14T19:29:29.413Z,64.59
2019-01-14T19:32:02.214Z,64.78
2019-01-14T19:34:31.771Z,64.58
2019-01-14T19:37:01.830Z,64.44
2019-01-14T19:39:31.422Z,64.73
2019-01-14T19:42:03.459Z,64.73
2019-01-14T19:44:33.033Z,64.72
2019-01-14T19:47:02.519Z,64.69
2019-01-14T19:49:33.604Z,64.37
2019-01-14T19:52:15.784Z,64.42
2019-01-14T19:54:45.841Z,64.42
2019-01-14T19:57:15.460Z,64.22
2019-01-14T20:00:05.173Z,63.94
2019-01-14T20:05:31.520Z,64.12
2019-01-14T20:11:17.773Z,63.30
2019-01-14T20:13:47.247Z,63.30
2019-01-14T20:16:17.143Z,63.18
2019-01-14T20:21:22.380Z,62.86
2019-01-14T20:23:52.425Z,62.72
2019-01-14T20:26:42.192Z,62.72
2019-01-14T20:29:11.777Z,62.97
2019-01-14T20:32:00.373Z,62.59
2019-01-14T20:34:30.039Z,62.59
2019-01-14T20:37:02.698Z,62.32
2019-01-14T20:39:32.188Z,61.97
2019-01-14T20:42:01.679Z,62.15
2019-01-14T20:44:31.364Z,62.17
2019-01-14T20:47:01.361Z,62.14
2019-01-14T20:49:31.094Z,61.81
2019-01-14T20:52:00.924Z,61.86
2019-01-14T20:54:33.513Z,61.86
2019-01-14T20:59:38.793Z,61.80
2019-01-14T21:02:19.846Z,61.69
2019-01-14T21:04:50.234Z,61.85
2019-01-14T21:07:38.548Z,61.85
2019-01-14T21:10:09.064Z,61.15
2019-01-14T21:12:38.438Z,61.15
2019-01-14T21:15:08.784Z,61.11
2019-01-14T21:17:40.963Z,61.20
2019-01-14T21:20:13.895Z,61.21
2019-01-14T21:23:26.869Z,61.29
2019-01-14T21:25:56.232Z,60.77
2019-01-14T21:28:25.761Z,61.01
2019-01-14T21:30:55.125Z,60.87
2019-01-14T21:33:24.718Z,60.87
2019-01-14T21:36:13.139Z,60.35
2019-01-14T21:38:43.412Z,59.89
2019-01-14T21:41:12.965Z,60.23
2019-01-14T21:44:14.318Z,59.43
2019-01-14T21:46:44.393Z,58.23
2019-01-14T21:49:14.147Z,58.23
2019-01-14T21:51:43.579Z,58.80
2019-01-14T22:00:09.548Z,57.62
2019-01-14T22:02:39.649Z,57.71
2019-01-14T22:05:08.961Z,57.13
2019-01-14T22:07:41.824Z,57.13
2019-01-14T22:10:14.076Z,57.03
2019-01-14T22:13:02.498Z,57.24
2019-01-14T22:15:32.098Z,57.24
2019-01-14T22:18:04.733Z,57.26
2019-01-14T22:20:53.445Z,56.91
2019-01-14T22:26:16.102Z,56.63
2019-01-14T22:28:45.438Z,56.77
2019-01-14T22:31:15.065Z,57.00
2019-01-14T22:33:44.511Z,56.46
2019-01-14T22:36:14.441Z,56.13
2019-01-14T22:38:43.860Z,56.96
2019-01-14T22:41:13.589Z,56.96
2019-01-14T22:43:43.223Z,56.42
2019-01-14T22:46:12.683Z,56.78
2019-01-14T22:48:53.946Z,56.45
2019-01-14T22:51:23.594Z,56.98
2019-01-14T22:54:12.485Z,56.83
2019-01-14T22:56:42.502Z,56.83
2019-01-14T22:59:11.994Z,57.15
2019-01-14T23:02:00.556Z,57.30
2019-01-14T23:04:30.237Z,57.30
2019-01-14T23:07:18.908Z,57.21
2019-01-14T23:10:00.005Z,57.68
2019-01-14T23:15:06.353Z,58.18
2019-01-14T23:17:36.029Z,58.18
2019-01-14T23:20:06.639Z,58.40
2019-01-14T23:22:36.179Z,58.80
2019-01-14T23:25:14.207Z,59.16
2019-01-14T23:28:03.185Z,59.31
2019-01-14T23:30:51.982Z,59.40
2019-01-14T23:33:27.620Z,59.40
2019-01-14T23:35:57.356Z,59.49
2019-01-14T23:39:06.095Z,59.58
2019-01-14T23:41:35.826Z,59.28
2019-01-14T23:44:06.208Z,60.17
2019-01-14T23:46:36.237Z,60.17
2019-01-14T23:49:14.556Z,60.27
2019-01-14T23:54:19.300Z,60.81
2019-01-14T23:57:08.269Z,61.33
2019-01-14T23:59:55.098Z,61.47
